Time;durP1;ratioP1;P1;durP2;ratioP2;P2;SDS_P1;SDS_P2;PMS_P1;PMS_P2;Temp;Humidity;BMP_temperature;BMP_pressure;BME280_temperature;BME280_humidity;BME280_pressure;Samples;Min_cycle;Max_cycle;Signal;HPM_P1;HPM_P2
2023/02/06 00:01:34;;;;;;;10.45;3.55;;;;;;;;;;5049439;28;20373;-66
2023/02/06 00:04:00;;;;;;;9.07;2.55;;;;;;;;;;5051705;28;20048;-66
2023/02/06 00:06:26;;;;;;;10.52;2.75;;;;;;;;;;5053764;28;20504;-67
2023/02/06 00:08:52;;;;;;;9.18;2.95;;;;;;;;;;5053847;28;20512;-64
2023/02/06 00:11:20;;;;;;;10.02;3.65;;;;;;;;;;5053564;28;20366;-65
2023/02/06 00:13:46;;;;;;;11.23;3.45;;;;;;;;;;5053308;28;20492;-67
2023/02/06 00:16:16;;;;;;;10.63;3.50;;;;;;;;;;5053333;28;20056;-68
2023/02/06 00:18:42;;;;;;;8.48;2.95;;;;;;;;;;5053731;28;20024;-65
2023/02/06 00:21:08;;;;;;;12.25;3.50;;;;;;;;;;5053376;28;20029;-67
2023/02/06 00:23:34;;;;;;;13.20;3.28;;;;;;;;;;5053287;28;20037;-65
2023/02/06 00:26:00;;;;;;;9.00;3.22;;;;;;;;;;5049584;28;20385;-65
2023/02/06 00:28:26;;;;;;;8.77;2.83;;;;;;;;;;5053918;28;20032;-68
2023/02/06 00:30:52;;;;;;;9.65;3.05;;;;;;;;;;5053243;28;20035;-65
2023/02/06 00:33:18;;;;;;;7.88;2.92;;;;;;;;;;5053725;28;20021;-67
2023/02/06 00:35:44;;;;;;;10.55;3.30;;;;;;;;;;5052733;28;20037;-66
2023/02/06 00:38:10;;;;;;;10.85;3.88;;;;;;;;;;5053611;28;20330;-68
2023/02/06 00:40:37;;;;;;;9.43;3.47;;;;;;;;;;5052745;28;20035;-66
2023/02/06 00:43:03;;;;;;;10.10;3.00;;;;;;;;;;5052823;28;20029;-65
2023/02/06 00:45:29;;;;;;;9.77;3.25;;;;;;;;;;5053282;28;20025;-65
2023/02/06 00:47:55;;;;;;;10.45;3.17;;;;;;;;;;5053096;28;20116;-67
2023/02/06 00:50:21;;;;;;;12.05;2.92;;;;;;;;;;5052593;28;20028;-67
2023/02/06 00:52:47;;;;;;;9.60;2.70;;;;;;;;;;5052635;28;20855;-67
2023/02/06 00:55:13;;;;;;;9.73;3.40;;;;;;;;;;5052860;28;20032;-67
2023/02/06 00:57:39;;;;;;;8.65;3.40;;;;;;;;;;5052798;28;20082;-67
2023/02/06 01:00:06;;;;;;;10.55;3.60;;;;;;;;;;5052601;28;20108;-67
2023/02/06 01:02:32;;;;;;;10.63;3.40;;;;;;;;;;5052058;28;20029;-68
2023/02/06 01:04:58;;;;;;;8.50;2.83;;;;;;;;;;5052699;28;20143;-66
2023/02/06 01:07:24;;;;;;;11.60;3.88;;;;;;;;;;5052633;28;20037;-68
2023/02/06 01:09:50;;;;;;;8.48;3.17;;;;;;;;;;5052747;28;20124;-68
2023/02/06 01:12:16;;;;;;;8.73;3.10;;;;;;;;;;5052204;28;20040;-65
2023/02/06 01:14:42;;;;;;;9.10;3.03;;;;;;;;;;5052297;28;20366;-64
2023/02/06 01:17:09;;;;;;;13.27;3.45;;;;;;;;;;5052824;28;20036;-67
2023/02/06 01:19:36;;;;;;;9.82;3.22;;;;;;;;;;5052135;28;20047;-67
2023/02/06 01:22:02;;;;;;;11.07;3.45;;;;;;;;;;5052191;28;20040;-67
2023/02/06 01:24:28;;;;;;;11.50;3.50;;;;;;;;;;5052196;28;20035;-66
2023/02/06 01:26:54;;;;;;;10.40;3.00;;;;;;;;;;5052601;28;20044;-67
2023/02/06 01:29:20;;;;;;;10.90;3.28;;;;;;;;;;5052215;28;20056;-66
2023/02/06 01:31:46;;;;;;;10.57;3.10;;;;;;;;;;5051766;28;20031;-66
2023/02/06 01:34:12;;;;;;;12.00;3.83;;;;;;;;;;5052239;28;20044;-66
2023/02/06 01:36:38;;;;;;;11.23;3.25;;;;;;;;;;5051084;28;20029;-68
2023/02/06 01:39:05;;;;;;;11.57;3.38;;;;;;;;;;5051911;28;20082;-67
2023/02/06 01:41:31;;;;;;;9.63;3.17;;;;;;;;;;5050742;28;20043;-67
2023/02/06 01:44:17;;;;;;;11.40;3.22;;;;;;;;;;5051344;28;20041;-62
2023/02/06 01:46:44;;;;;;;10.88;3.95;;;;;;;;;;5051861;28;20099;-68
2023/02/06 01:49:23;;;;;;;10.05;3.10;;;;;;;;;;5051628;28;20524;-68
2023/02/06 01:51:50;;;;;;;8.57;3.47;;;;;;;;;;5036854;28;20397;-66
2023/02/06 01:54:16;;;;;;;13.63;3.63;;;;;;;;;;5052145;28;20099;-68
2023/02/06 01:56:47;;;;;;;9.23;3.40;;;;;;;;;;5051420;28;20052;-69
2023/02/06 01:59:13;;;;;;;11.98;4.07;;;;;;;;;;5051350;28;20543;-61
2023/02/06 02:01:40;;;;;;;10.70;3.58;;;;;;;;;;5051147;28;20457;-69
2023/02/06 02:04:08;;;;;;;10.02;3.60;;;;;;;;;;5051504;28;20200;-68
2023/02/06 02:06:34;;;;;;;9.93;2.92;;;;;;;;;;5051024;28;20036;-68
2023/02/06 02:09:00;;;;;;;8.93;3.38;;;;;;;;;;5051529;28;20032;-68
2023/02/06 02:11:36;;;;;;;10.98;3.08;;;;;;;;;;5051673;28;20108;-68
2023/02/06 02:14:04;;;;;;;9.13;2.88;;;;;;;;;;5051411;28;20104;-66
2023/02/06 02:16:33;;;;;;;9.02;3.00;;;;;;;;;;5051393;28;20448;-68
2023/02/06 02:18:59;;;;;;;9.10;3.08;;;;;;;;;;5051061;28;20029;-69
2023/02/06 02:21:25;;;;;;;9.63;3.75;;;;;;;;;;5051383;28;20107;-67
2023/02/06 02:23:57;;;;;;;11.30;3.88;;;;;;;;;;5051005;28;20047;-68
2023/02/06 02:26:36;;;;;;;8.15;3.22;;;;;;;;;;5050851;28;20029;-69
2023/02/06 02:29:15;;;;;;;10.43;3.58;;;;;;;;;;5051091;28;20021;-67
2023/02/06 02:31:55;;;;;;;9.05;3.65;;;;;;;;;;5050802;28;20032;-66
2023/02/06 02:34:29;;;;;;;8.43;3.33;;;;;;;;;;5051028;28;20504;-67
2023/02/06 02:37:18;;;;;;;9.87;3.43;;;;;;;;;;5051042;28;20036;-66
2023/02/06 02:39:49;;;;;;;9.48;3.40;;;;;;;;;;5050458;28;20539;-68
2023/02/06 02:42:27;;;;;;;9.98;3.55;;;;;;;;;;5050453;28;20588;-65
2023/02/06 02:45:05;;;;;;;9.80;3.30;;;;;;;;;;5031389;28;20387;-67
2023/02/06 02:47:33;;;;;;;9.75;3.28;;;;;;;;;;5036179;28;20021;-68
2023/02/06 02:50:00;;;;;;;11.52;3.65;;;;;;;;;;5050425;28;20026;-67
2023/02/06 02:52:26;;;;;;;10.50;3.20;;;;;;;;;;5051149;28;20031;-66
2023/02/06 02:54:52;;;;;;;7.88;3.20;;;;;;;;;;5050755;28;20028;-68
2023/02/06 02:57:21;;;;;;;11.43;3.55;;;;;;;;;;5050731;28;20040;-65
2023/02/06 02:59:48;;;;;;;9.27;3.30;;;;;;;;;;5050797;28;20029;-67
2023/02/06 03:02:25;;;;;;;9.15;3.53;;;;;;;;;;5050088;28;20068;-67
2023/02/06 03:04:53;;;;;;;6.68;3.30;;;;;;;;;;5050213;28;20052;-66
2023/02/06 03:07:22;;;;;;;9.38;2.88;;;;;;;;;;5050537;28;20075;-69
2023/02/06 03:09:57;;;;;;;11.50;3.22;;;;;;;;;;5050267;28;20451;-64
2023/02/06 03:12:29;;;;;;;13.70;4.22;;;;;;;;;;5050341;28;20090;-65
2023/02/06 03:15:08;;;;;;;7.63;2.55;;;;;;;;;;5050679;28;20021;-64
2023/02/06 03:17:40;;;;;;;10.85;3.28;;;;;;;;;;5050219;28;20052;-66
2023/02/06 03:20:07;;;;;;;7.47;2.80;;;;;;;;;;5050227;28;20029;-65
2023/02/06 03:22:35;;;;;;;8.27;3.22;;;;;;;;;;5050175;28;20504;-68
2023/02/06 03:25:02;;;;;;;8.88;3.70;;;;;;;;;;5050065;28;20470;-68
2023/02/06 03:27:29;;;;;;;10.77;4.00;;;;;;;;;;5049939;28;20155;-64
2023/02/06 03:29:55;;;;;;;10.98;3.50;;;;;;;;;;5050420;28;20029;-69
2023/02/06 03:32:22;;;;;;;10.75;3.20;;;;;;;;;;5050317;28;20078;-69
2023/02/06 03:35:00;;;;;;;7.28;2.90;;;;;;;;;;5049759;28;20037;-66
2023/02/06 03:37:27;;;;;;;8.77;2.85;;;;;;;;;;5050886;28;20032;-68
2023/02/06 03:39:53;;;;;;;8.02;2.72;;;;;;;;;;5054406;28;20164;-68
2023/02/06 03:42:20;;;;;;;11.18;3.75;;;;;;;;;;5053770;28;20061;-68
2023/02/06 03:44:49;;;;;;;9.30;2.83;;;;;;;;;;5053725;28;20036;-68
2023/02/06 03:47:16;;;;;;;10.88;3.55;;;;;;;;;;5054246;28;20100;-67
2023/02/06 03:49:43;;;;;;;7.95;2.72;;;;;;;;;;5053555;28;20025;-61
2023/02/06 03:52:12;;;;;;;10.70;3.20;;;;;;;;;;5053964;28;20500;-67
2023/02/06 03:54:41;;;;;;;6.78;2.25;;;;;;;;;;5053904;28;20033;-66
2023/02/06 03:57:10;;;;;;;10.48;2.90;;;;;;;;;;5053489;28;20021;-68
2023/02/06 03:59:36;;;;;;;8.77;2.85;;;;;;;;;;5053678;28;20495;-69
2023/02/06 04:02:03;;;;;;;11.20;3.33;;;;;;;;;;5053264;28;20119;-69
2023/02/06 04:04:31;;;;;;;10.02;2.97;;;;;;;;;;5053860;28;20028;-69
2023/02/06 04:06:59;;;;;;;9.73;3.05;;;;;;;;;;5053292;28;20037;-60
2023/02/06 04:09:25;;;;;;;12.13;3.50;;;;;;;;;;5054127;28;20060;-69
2023/02/06 04:11:51;;;;;;;11.38;3.20;;;;;;;;;;5053472;28;20065;-67
2023/02/06 04:14:17;;;;;;;13.18;3.17;;;;;;;;;;5053586;28;20025;-69
2023/02/06 04:16:43;;;;;;;6.55;2.30;;;;;;;;;;5053647;28;20021;-69
2023/02/06 04:19:10;;;;;;;8.88;2.72;;;;;;;;;;5053475;28;20041;-70
2023/02/06 04:21:36;;;;;;;8.50;3.00;;;;;;;;;;5053269;28;20029;-69
2023/02/06 04:24:02;;;;;;;7.28;2.67;;;;;;;;;;5053693;28;20041;-69
2023/02/06 04:26:28;;;;;;;8.15;2.40;;;;;;;;;;5053313;28;20033;-70
2023/02/06 04:28:54;;;;;;;10.23;2.90;;;;;;;;;;5053412;28;20045;-69
2023/02/06 04:31:20;;;;;;;9.00;2.92;;;;;;;;;;5053351;28;20096;-68
2023/02/06 04:33:46;;;;;;;9.85;3.10;;;;;;;;;;5053023;28;20037;-70
2023/02/06 04:36:12;;;;;;;7.03;2.38;;;;;;;;;;5053148;28;20474;-69
2023/02/06 04:38:38;;;;;;;7.88;2.67;;;;;;;;;;5034802;28;20029;-69
2023/02/06 04:41:05;;;;;;;9.15;3.03;;;;;;;;;;5053015;28;20074;-67
2023/02/06 04:43:31;;;;;;;7.65;2.33;;;;;;;;;;5052697;28;20486;-66
2023/02/06 04:45:57;;;;;;;10.02;3.05;;;;;;;;;;5052488;28;20120;-62
2023/02/06 04:48:23;;;;;;;8.27;2.97;;;;;;;;;;5053041;28;20033;-68
2023/02/06 04:50:50;;;;;;;11.40;3.20;;;;;;;;;;5052071;28;20021;-69
2023/02/06 04:53:16;;;;;;;10.48;3.40;;;;;;;;;;5053138;28;20021;-67
2023/02/06 04:55:42;;;;;;;10.85;3.17;;;;;;;;;;5052528;28;20033;-69
2023/02/06 04:58:08;;;;;;;8.00;2.38;;;;;;;;;;5052642;28;20029;-71
2023/02/06 05:00:34;;;;;;;9.15;3.17;;;;;;;;;;5052749;28;20468;-64
2023/02/06 05:03:00;;;;;;;9.35;3.17;;;;;;;;;;5052869;28;20402;-67
2023/02/06 05:05:26;;;;;;;7.22;2.58;;;;;;;;;;5053014;28;20017;-68
2023/02/06 05:07:52;;;;;;;8.40;3.15;;;;;;;;;;5053410;28;20059;-69
2023/02/06 05:10:18;;;;;;;10.05;3.13;;;;;;;;;;5052780;28;20036;-68
2023/02/06 05:12:45;;;;;;;6.95;2.95;;;;;;;;;;5052663;28;20032;-70
2023/02/06 05:15:12;;;;;;;7.32;2.60;;;;;;;;;;5051854;28;20082;-70
2023/02/06 05:17:38;;;;;;;7.25;2.58;;;;;;;;;;5052625;28;20032;-66
2023/02/06 05:20:04;;;;;;;7.90;2.65;;;;;;;;;;5052527;28;20025;-70
2023/02/06 05:22:30;;;;;;;6.80;2.92;;;;;;;;;;5052310;28;20030;-67
2023/02/06 05:24:56;;;;;;;9.25;2.70;;;;;;;;;;5052685;28;20040;-70
2023/02/06 05:27:23;;;;;;;7.07;2.85;;;;;;;;;;5052555;28;20509;-71
2023/02/06 05:29:49;;;;;;;7.53;2.78;;;;;;;;;;5051775;28;20032;-70
2023/02/06 05:32:17;;;;;;;7.28;2.75;;;;;;;;;;5051985;28;20031;-70
2023/02/06 05:34:43;;;;;;;9.07;2.88;;;;;;;;;;5052274;28;20029;-68
2023/02/06 05:37:09;;;;;;;8.52;2.60;;;;;;;;;;5051901;28;20021;-67
2023/02/06 05:39:35;;;;;;;9.52;3.47;;;;;;;;;;5051221;28;20039;-67
2023/02/06 05:42:00;;;;;;;11.05;3.15;;;;;;;;;;5051846;28;20021;-67
2023/02/06 05:44:27;;;;;;;7.90;3.25;;;;;;;;;;5052035;28;20041;-70
2023/02/06 05:46:53;;;;;;;8.48;3.30;;;;;;;;;;5052051;28;20045;-69
2023/02/06 05:49:19;;;;;;;11.80;3.53;;;;;;;;;;5052345;28;20025;-68
2023/02/06 05:51:45;;;;;;;10.50;3.20;;;;;;;;;;5033718;28;20036;-70
2023/02/06 05:54:12;;;;;;;10.27;3.60;;;;;;;;;;5051839;28;20482;-70
2023/02/06 05:56:38;;;;;;;7.63;2.85;;;;;;;;;;5051081;28;20028;-62
2023/02/06 05:59:04;;;;;;;8.82;2.83;;;;;;;;;;5051244;28;20519;-69
2023/02/06 06:01:30;;;;;;;10.98;3.55;;;;;;;;;;5049997;28;20063;-71
2023/02/06 06:03:56;;;;;;;8.02;2.92;;;;;;;;;;5052221;28;20086;-72
2023/02/06 06:06:21;;;;;;;7.30;3.28;;;;;;;;;;5051447;28;20128;-72
2023/02/06 06:08:47;;;;;;;9.05;2.92;;;;;;;;;;5051754;28;20040;-71
2023/02/06 06:11:13;;;;;;;10.20;3.17;;;;;;;;;;5051440;28;20147;-73
2023/02/06 06:13:39;;;;;;;9.82;3.08;;;;;;;;;;5051592;28;20024;-71
2023/02/06 06:16:05;;;;;;;9.32;3.40;;;;;;;;;;5033259;28;20027;-71
2023/02/06 06:18:31;;;;;;;10.57;3.70;;;;;;;;;;5051437;28;20037;-71
2023/02/06 06:20:58;;;;;;;7.70;2.70;;;;;;;;;;5051618;28;20547;-67
2023/02/06 06:23:24;;;;;;;9.38;3.90;;;;;;;;;;5051454;28;20546;-71
2023/02/06 06:25:50;;;;;;;9.98;3.20;;;;;;;;;;5051212;28;20021;-68
2023/02/06 06:28:16;;;;;;;7.38;3.17;;;;;;;;;;5050518;28;20485;-72
2023/02/06 06:30:42;;;;;;;8.50;3.38;;;;;;;;;;5051081;28;20104;-64
2023/02/06 06:33:08;;;;;;;10.10;3.65;;;;;;;;;;5050627;28;20503;-62
2023/02/06 06:35:34;;;;;;;8.25;3.33;;;;;;;;;;5050856;28;20096;-62
2023/02/06 06:38:00;;;;;;;8.75;3.42;;;;;;;;;;5051107;28;20029;-62
2023/02/06 06:40:26;;;;;;;8.70;3.25;;;;;;;;;;5051835;28;20092;-63
2023/02/06 06:42:52;;;;;;;13.98;3.67;;;;;;;;;;5051070;28;20063;-63
2023/02/06 06:45:18;;;;;;;6.57;2.42;;;;;;;;;;5050717;28;20074;-63
2023/02/06 06:47:44;;;;;;;9.27;3.03;;;;;;;;;;5050294;28;20036;-64
2023/02/06 06:50:10;;;;;;;8.13;3.40;;;;;;;;;;5051056;28;20021;-65
2023/02/06 06:52:36;;;;;;;12.73;3.83;;;;;;;;;;5050625;28;20025;-64
2023/02/06 06:55:02;;;;;;;13.60;3.47;;;;;;;;;;5050829;28;20086;-64
2023/02/06 06:57:32;;;;;;;9.98;3.20;;;;;;;;;;5050186;28;20026;-64
2023/02/06 06:59:58;;;;;;;17.88;4.28;;;;;;;;;;5050776;28;20021;-64
2023/02/06 07:02:24;;;;;;;13.10;3.20;;;;;;;;;;5050235;28;20036;-64
2023/02/06 07:04:50;;;;;;;9.52;3.63;;;;;;;;;;5050622;28;20029;-64
2023/02/06 07:07:16;;;;;;;10.27;4.07;;;;;;;;;;5050672;28;20123;-63
2023/02/06 07:09:42;;;;;;;12.05;4.35;;;;;;;;;;5050266;28;20028;-64
2023/02/06 07:12:08;;;;;;;12.32;4.25;;;;;;;;;;5049900;28;20027;-64
2023/02/06 07:14:33;;;;;;;10.35;3.60;;;;;;;;;;5050720;28;20437;-64
2023/02/06 07:17:00;;;;;;;10.18;3.53;;;;;;;;;;5050562;28;20018;-65
2023/02/06 07:19:26;;;;;;;10.93;3.90;;;;;;;;;;5050122;28;20032;-65
2023/02/06 07:21:52;;;;;;;7.95;3.28;;;;;;;;;;5050105;28;20021;-63
2023/02/06 07:24:18;;;;;;;9.07;3.33;;;;;;;;;;5050382;28;20081;-64
2023/02/06 07:26:44;;;;;;;10.00;3.47;;;;;;;;;;5049347;28;20029;-63
2023/02/06 07:29:10;;;;;;;11.75;3.45;;;;;;;;;;5050165;28;20025;-63
2023/02/06 07:31:36;;;;;;;16.30;4.20;;;;;;;;;;5049049;28;20503;-62
2023/02/06 07:34:02;;;;;;;8.55;3.65;;;;;;;;;;5049243;28;20013;-63
2023/02/06 07:36:28;;;;;;;10.50;3.75;;;;;;;;;;5048918;28;20032;-63
2023/02/06 07:38:54;;;;;;;8.80;3.35;;;;;;;;;;5049395;28;20025;-62
2023/02/06 07:41:20;;;;;;;13.93;4.28;;;;;;;;;;5049064;28;20159;-62
2023/02/06 07:43:46;;;;;;;9.82;3.05;;;;;;;;;;5048746;28;20028;-62
2023/02/06 07:46:12;;;;;;;10.73;3.47;;;;;;;;;;5049443;28;20029;-63
2023/02/06 07:48:38;;;;;;;7.30;3.38;;;;;;;;;;5049095;28;20421;-62
2023/02/06 07:51:05;;;;;;;12.40;4.32;;;;;;;;;;5048892;28;20025;-62
2023/02/06 07:53:31;;;;;;;14.45;3.60;;;;;;;;;;5049589;28;20531;-62
2023/02/06 07:55:57;;;;;;;8.27;3.58;;;;;;;;;;5050365;28;20104;-61
2023/02/06 07:58:24;;;;;;;9.25;3.10;;;;;;;;;;5051043;28;20123;-62
2023/02/06 08:00:50;;;;;;;8.65;3.30;;;;;;;;;;5048984;28;20026;-63
2023/02/06 08:03:16;;;;;;;10.88;3.78;;;;;;;;;;5048821;28;20451;-63
2023/02/06 08:05:42;;;;;;;10.32;3.22;;;;;;;;;;5048693;28;20057;-63
2023/02/06 08:08:09;;;;;;;10.00;3.33;;;;;;;;;;5050289;28;20032;-62
2023/02/06 08:10:37;;;;;;;9.60;3.13;;;;;;;;;;5050245;28;20029;-63
2023/02/06 08:13:03;;;;;;;7.47;2.78;;;;;;;;;;5049899;28;20029;-62
2023/02/06 08:15:29;;;;;;;8.95;3.15;;;;;;;;;;5050373;28;20033;-62
2023/02/06 08:17:55;;;;;;;7.35;3.17;;;;;;;;;;5050847;28;20021;-62
2023/02/06 08:20:21;;;;;;;10.63;3.05;;;;;;;;;;5048598;28;20044;-62
2023/02/06 08:22:47;;;;;;;8.02;2.70;;;;;;;;;;5049843;28;20397;-63
2023/02/06 08:25:13;;;;;;;15.02;3.75;;;;;;;;;;5052240;28;20036;-63
2023/02/06 08:27:39;;;;;;;7.30;2.75;;;;;;;;;;5053939;28;20022;-63
2023/02/06 08:30:05;;;;;;;10.88;3.03;;;;;;;;;;5053863;28;20035;-62
2023/02/06 08:32:32;;;;;;;6.68;2.88;;;;;;;;;;5053811;28;20029;-62
2023/02/06 08:34:58;;;;;;;8.13;2.78;;;;;;;;;;5054010;28;20035;-63
2023/02/06 08:37:24;;;;;;;6.22;2.40;;;;;;;;;;5054159;28;20021;-62
2023/02/06 08:39:50;;;;;;;6.18;2.63;;;;;;;;;;5053460;28;20032;-63
2023/02/06 08:42:16;;;;;;;6.15;2.92;;;;;;;;;;5053820;28;20025;-63
2023/02/06 08:44:42;;;;;;;6.25;3.15;;;;;;;;;;5053547;28;20545;-62
2023/02/06 08:47:08;;;;;;;7.05;2.72;;;;;;;;;;5053719;28;20112;-62
2023/02/06 08:49:35;;;;;;;5.60;2.70;;;;;;;;;;5053315;28;20108;-63
2023/02/06 08:52:01;;;;;;;6.30;2.88;;;;;;;;;;5053472;28;20031;-62
2023/02/06 08:54:27;;;;;;;8.18;3.38;;;;;;;;;;5053890;28;20104;-62
2023/02/06 08:56:55;;;;;;;6.28;2.95;;;;;;;;;;5053661;28;20026;-63
2023/02/06 08:59:21;;;;;;;6.20;2.75;;;;;;;;;;5053567;28;20113;-63
2023/02/06 09:01:48;;;;;;;6.95;2.63;;;;;;;;;;5053167;28;20025;-63
2023/02/06 09:04:14;;;;;;;6.25;3.03;;;;;;;;;;5053233;28;20040;-62
2023/02/06 09:06:42;;;;;;;4.38;2.17;;;;;;;;;;5053024;28;20515;-63
2023/02/06 09:09:09;;;;;;;6.30;3.00;;;;;;;;;;5053519;28;20492;-63
2023/02/06 09:11:35;;;;;;;4.90;2.10;;;;;;;;;;5053081;28;20161;-64
2023/02/06 09:14:01;;;;;;;5.78;2.45;;;;;;;;;;5053240;28;20035;-63
2023/02/06 09:16:28;;;;;;;6.10;2.67;;;;;;;;;;5052961;28;20027;-59
2023/02/06 09:18:55;;;;;;;5.20;2.58;;;;;;;;;;5053368;28;20049;-63
2023/02/06 09:21:22;;;;;;;4.30;2.42;;;;;;;;;;5053066;28;20040;-62
2023/02/06 09:23:51;;;;;;;5.30;2.55;;;;;;;;;;5052775;28;20491;-63
2023/02/06 09:26:19;;;;;;;5.80;2.35;;;;;;;;;;5053052;28;20359;-63
2023/02/06 09:28:45;;;;;;;5.60;2.30;;;;;;;;;;5052584;28;20060;-62
2023/02/06 09:31:11;;;;;;;5.75;3.13;;;;;;;;;;5052908;28;20024;-62
2023/02/06 09:33:38;;;;;;;7.28;3.13;;;;;;;;;;5052619;28;20032;-63
2023/02/06 09:36:05;;;;;;;4.88;2.28;;;;;;;;;;5052403;28;20032;-63
2023/02/06 09:38:31;;;;;;;4.00;2.20;;;;;;;;;;5052570;28;20025;-63
2023/02/06 09:40:59;;;;;;;5.82;2.88;;;;;;;;;;5052686;28;20092;-61
2023/02/06 09:43:26;;;;;;;6.60;2.55;;;;;;;;;;5052881;28;20037;-63
2023/02/06 09:45:55;;;;;;;5.85;2.35;;;;;;;;;;5052671;28;20029;-62
2023/02/06 09:48:23;;;;;;;5.43;2.22;;;;;;;;;;5052498;28;20025;-63
2023/02/06 09:50:52;;;;;;;6.82;2.25;;;;;;;;;;5052251;28;20029;-62
2023/02/06 09:53:24;;;;;;;5.72;2.03;;;;;;;;;;5052472;28;20047;-61
2023/02/06 09:56:13;;;;;;;4.63;2.28;;;;;;;;;;5052147;28;20497;-63
2023/02/06 09:58:44;;;;;;;3.97;2.20;;;;;;;;;;5006140;28;20397;-63
2023/02/06 10:01:13;;;;;;;6.03;2.65;;;;;;;;;;5052385;28;20029;-63
2023/02/06 10:03:57;;;;;;;5.47;2.60;;;;;;;;;;5051956;28;20507;-62
2023/02/06 10:06:26;;;;;;;4.55;2.55;;;;;;;;;;5052324;28;20120;-63
2023/02/06 10:09:01;;;;;;;4.63;2.33;;;;;;;;;;5052670;28;20021;-65
2023/02/06 10:11:30;;;;;;;5.32;2.80;;;;;;;;;;5051797;28;20025;-60
2023/02/06 10:13:57;;;;;;;4.85;2.60;;;;;;;;;;5052338;28;20032;-63
2023/02/06 10:16:26;;;;;;;5.47;2.45;;;;;;;;;;5052325;28;20486;-63
2023/02/06 10:18:54;;;;;;;8.32;3.22;;;;;;;;;;5052216;28;20480;-63
2023/02/06 10:21:30;;;;;;;4.93;2.60;;;;;;;;;;5051961;28;20083;-63
2023/02/06 10:24:18;;;;;;;3.80;2.13;;;;;;;;;;5052010;28;20393;-63
2023/02/06 10:26:46;;;;;;;4.07;1.88;;;;;;;;;;5051585;28;20500;-63
2023/02/06 10:29:19;;;;;;;4.57;2.30;;;;;;;;;;5051695;28;20485;-63
2023/02/06 10:31:54;;;;;;;5.38;2.60;;;;;;;;;;5051564;28;20024;-62
2023/02/06 10:34:25;;;;;;;4.72;2.35;;;;;;;;;;5051678;28;20035;-63
2023/02/06 10:36:54;;;;;;;4.40;2.38;;;;;;;;;;5051354;28;20017;-63
2023/02/06 10:39:38;;;;;;;4.55;2.65;;;;;;;;;;5051351;28;20040;-62
2023/02/06 10:42:10;;;;;;;4.65;2.42;;;;;;;;;;5051432;28;20500;-63
2023/02/06 10:44:47;;;;;;;5.95;2.70;;;;;;;;;;5051308;28;20499;-61
2023/02/06 10:47:36;;;;;;;6.25;2.78;;;;;;;;;;5051001;28;20028;-63
2023/02/06 10:50:19;;;;;;;3.42;2.10;;;;;;;;;;5038757;28;20047;-63
2023/02/06 10:52:46;;;;;;;5.07;2.40;;;;;;;;;;5051250;28;20035;-63
2023/02/06 10:55:18;;;;;;;3.92;1.88;;;;;;;;;;5051017;28;20032;-63
2023/02/06 10:57:45;;;;;;;4.82;2.45;;;;;;;;;;5051215;28;20029;-63
2023/02/06 11:00:18;;;;;;;5.30;2.72;;;;;;;;;;5051387;28;20035;-63
2023/02/06 11:02:54;;;;;;;4.15;2.47;;;;;;;;;;5050964;28;20033;-63
2023/02/06 11:05:22;;;;;;;5.90;2.30;;;;;;;;;;5050959;28;20087;-63
2023/02/06 11:07:52;;;;;;;5.00;2.53;;;;;;;;;;5050942;28;20386;-62
2023/02/06 11:10:19;;;;;;;4.90;3.00;;;;;;;;;;5051210;28;20033;-61
2023/02/06 11:13:00;;;;;;;4.85;2.50;;;;;;;;;;5050908;28;20033;-62
2023/02/06 11:15:35;;;;;;;5.15;2.72;;;;;;;;;;5051221;28;20496;-61
2023/02/06 11:18:03;;;;;;;5.53;2.75;;;;;;;;;;5051085;28;20075;-62
2023/02/06 11:20:31;;;;;;;5.88;2.30;;;;;;;;;;5050845;28;20052;-61
2023/02/06 11:23:13;;;;;;;6.07;2.75;;;;;;;;;;5051181;28;20025;-60
2023/02/06 11:25:39;;;;;;;3.92;2.28;;;;;;;;;;5050803;28;20371;-62
2023/02/06 11:28:11;;;;;;;4.63;2.80;;;;;;;;;;5051015;28;20056;-62
2023/02/06 11:30:39;;;;;;;3.60;2.10;;;;;;;;;;5050801;28;20067;-62
2023/02/06 11:33:07;;;;;;;6.40;3.15;;;;;;;;;;5050936;28;20074;-63
2023/02/06 11:35:46;;;;;;;5.47;2.75;;;;;;;;;;5050733;28;20092;-62
2023/02/06 11:38:15;;;;;;;4.57;2.33;;;;;;;;;;5033006;28;20393;-62
2023/02/06 11:40:41;;;;;;;4.65;2.85;;;;;;;;;;5050609;28;20036;-63
2023/02/06 11:43:14;;;;;;;5.05;2.65;;;;;;;;;;5050668;28;20032;-62
2023/02/06 11:45:40;;;;;;;6.25;3.13;;;;;;;;;;5049911;28;20025;-62
2023/02/06 11:48:06;;;;;;;5.70;2.88;;;;;;;;;;5050591;28;20084;-62
2023/02/06 11:50:34;;;;;;;5.82;3.25;;;;;;;;;;5050619;28;20461;-62
2023/02/06 11:53:30;;;;;;;7.28;3.20;;;;;;;;;;5050856;28;20097;-62
2023/02/06 11:55:58;;;;;;;5.25;2.85;;;;;;;;;;5030394;28;20033;-62
2023/02/06 11:58:26;;;;;;;5.45;3.08;;;;;;;;;;5051764;28;20110;-60
2023/02/06 12:00:53;;;;;;;6.82;3.60;;;;;;;;;;5054613;28;20025;-62
2023/02/06 12:03:34;;;;;;;6.05;3.53;;;;;;;;;;5054536;28;20048;-62
2023/02/06 12:06:03;;;;;;;7.78;4.22;;;;;;;;;;5054296;28;20043;-62
2023/02/06 12:08:38;;;;;;;6.22;3.53;;;;;;;;;;5054308;28;20032;-62
2023/02/06 12:11:06;;;;;;;7.78;4.10;;;;;;;;;;5054553;28;20470;-62
2023/02/06 12:13:36;;;;;;;7.18;4.15;;;;;;;;;;5054180;28;20036;-60
2023/02/06 12:16:03;;;;;;;8.30;3.90;;;;;;;;;;5054352;28;20025;-60
2023/02/06 12:18:33;;;;;;;7.80;4.30;;;;;;;;;;5054031;28;20035;-61
2023/02/06 12:21:13;;;;;;;7.40;4.35;;;;;;;;;;5054196;28;20017;-62
2023/02/06 12:23:42;;;;;;;6.75;4.45;;;;;;;;;;5054012;28;20038;-59
2023/02/06 12:26:11;;;;;;;8.38;3.78;;;;;;;;;;5054207;28;20032;-63
2023/02/06 12:28:46;;;;;;;7.22;4.35;;;;;;;;;;5053838;28;20025;-61
2023/02/06 12:31:20;;;;;;;11.25;4.70;;;;;;;;;;5054052;28;20031;-62
2023/02/06 12:33:49;;;;;;;8.82;4.38;;;;;;;;;;5053833;28;20108;-62
2023/02/06 12:36:20;;;;;;;9.70;4.20;;;;;;;;;;5053895;28;20043;-63
2023/02/06 12:38:57;;;;;;;7.40;4.28;;;;;;;;;;5053519;28;20096;-62
2023/02/06 12:41:24;;;;;;;8.63;4.70;;;;;;;;;;5054046;28;20474;-63
2023/02/06 12:43:53;;;;;;;7.22;3.70;;;;;;;;;;5053547;28;20029;-63
2023/02/06 12:46:21;;;;;;;6.93;4.05;;;;;;;;;;5053761;28;20025;-63
2023/02/06 12:48:54;;;;;;;10.25;4.25;;;;;;;;;;5053465;28;20063;-63
2023/02/06 12:51:24;;;;;;;9.07;4.45;;;;;;;;;;5053681;28;20108;-63
2023/02/06 12:53:53;;;;;;;6.53;3.92;;;;;;;;;;5053454;28;20059;-63
2023/02/06 12:56:33;;;;;;;7.80;4.47;;;;;;;;;;5053700;28;20438;-63
2023/02/06 12:59:30;;;;;;;13.20;4.93;;;;;;;;;;5053631;28;20477;-62
2023/02/06 13:02:08;;;;;;;7.65;4.45;;;;;;;;;;5053764;28;20057;-62
2023/02/06 13:04:36;;;;;;;10.02;4.53;;;;;;;;;;5053002;28;20033;-62
2023/02/06 13:07:05;;;;;;;8.93;4.28;;;;;;;;;;5053132;28;20033;-62
2023/02/06 13:09:33;;;;;;;7.53;4.30;;;;;;;;;;5052973;28;20504;-61
2023/02/06 13:12:15;;;;;;;8.15;4.03;;;;;;;;;;5052685;28;20493;-62
2023/02/06 13:14:46;;;;;;;9.40;4.60;;;;;;;;;;5052826;28;20029;-62
2023/02/06 13:17:30;;;;;;;9.15;4.03;;;;;;;;;;5053229;28;20100;-63
2023/02/06 13:20:12;;;;;;;10.63;3.80;;;;;;;;;;5053463;28;20040;-64
2023/02/06 13:22:42;;;;;;;6.85;3.72;;;;;;;;;;5052775;28;20036;-63
2023/02/06 13:25:27;;;;;;;7.32;4.05;;;;;;;;;;5052880;28;20503;-62
2023/02/06 13:27:53;;;;;;;8.43;4.03;;;;;;;;;;5053391;28;20044;-63
2023/02/06 13:30:28;;;;;;;6.32;3.85;;;;;;;;;;5053014;28;20036;-63
2023/02/06 13:32:57;;;;;;;6.60;3.67;;;;;;;;;;5053331;28;20040;-63
2023/02/06 13:35:25;;;;;;;7.25;3.72;;;;;;;;;;5053093;28;20044;-62
2023/02/06 13:38:09;;;;;;;6.88;4.30;;;;;;;;;;5052499;28;20025;-63
2023/02/06 13:40:35;;;;;;;6.93;3.45;;;;;;;;;;5052358;28;20108;-62
2023/02/06 13:43:12;;;;;;;8.73;4.13;;;;;;;;;;5052699;28;20078;-62
2023/02/06 13:45:47;;;;;;;8.05;4.28;;;;;;;;;;5052273;28;20036;-62
2023/02/06 13:48:22;;;;;;;9.07;4.53;;;;;;;;;;5052731;28;20048;-63
2023/02/06 13:51:07;;;;;;;8.10;4.50;;;;;;;;;;5052307;28;20021;-63
2023/02/06 13:53:52;;;;;;;14.23;4.40;;;;;;;;;;5052159;28;20048;-63
2023/02/06 13:56:37;;;;;;;8.13;3.70;;;;;;;;;;5052204;28;20038;-62
2023/02/06 13:59:06;;;;;;;9.85;3.75;;;;;;;;;;5052475;28;20370;-62
2023/02/06 14:01:32;;;;;;;10.32;4.10;;;;;;;;;;5052100;28;20096;-62
2023/02/06 14:03:59;;;;;;;6.25;3.70;;;;;;;;;;5052203;28;20464;-62
2023/02/06 14:06:25;;;;;;;6.97;4.38;;;;;;;;;;5052281;28;20459;-62
2023/02/06 14:08:56;;;;;;;7.07;3.70;;;;;;;;;;5051839;28;20029;-60
2023/02/06 14:14:13;;;;;;;11.65;4.32;;;;;;;;;;5052075;28;20547;-63
2023/02/06 14:16:58;;;;;;;8.85;4.40;;;;;;;;;;5051819;28;20017;-63
2023/02/06 14:19:53;;;;;;;7.57;3.80;;;;;;;;;;5052367;28;20481;-63
2023/02/06 14:22:31;;;;;;;6.13;3.50;;;;;;;;;;5029860;28;20121;-63
2023/02/06 14:25:15;;;;;;;6.13;3.45;;;;;;;;;;5051946;28;20103;-60
2023/02/06 14:28:00;;;;;;;6.68;3.45;;;;;;;;;;5051536;28;20017;-63
2023/02/06 14:30:31;;;;;;;7.13;3.58;;;;;;;;;;5052239;28;20060;-62
2023/02/06 14:33:04;;;;;;;9.13;3.85;;;;;;;;;;5051973;28;20025;-62
2023/02/06 14:35:30;;;;;;;6.57;4.07;;;;;;;;;;5033750;28;20486;-62
2023/02/06 14:38:15;;;;;;;6.32;3.38;;;;;;;;;;5051838;28;20070;-63
2023/02/06 14:40:42;;;;;;;6.95;3.78;;;;;;;;;;5051400;28;20098;-63
2023/02/06 14:43:17;;;;;;;8.18;3.88;;;;;;;;;;5051543;28;20029;-62
2023/02/06 14:45:47;;;;;;;7.18;3.53;;;;;;;;;;5051408;28;20029;-62
2023/02/06 14:48:17;;;;;;;6.93;4.00;;;;;;;;;;5051381;28;20392;-62
2023/02/06 14:50:45;;;;;;;8.93;4.25;;;;;;;;;;5051194;28;20035;-62
2023/02/06 14:53:15;;;;;;;8.88;3.83;;;;;;;;;;5051404;28;20108;-62